Insider Trading activities of Northrop Grumman Corp /de/ insiders. , Part 3

Monthly summaries of insider trading activities (stock purchases, sales, and option exercises) reported by insiders of Northrop Grumman Corp /de/ since 2005 are illustrated in Table 1 and Table 2. Table 1 shows the monthly insider trading data of Northrop Grumman Corp /de/ since year 2005. (See page 1 of this report.) Table 2 shows the detailed insider transactions of Northrop Grumman Corp /de/ since 2005. The reporting company's ticker symbol is NOC. The reporting company's CIK number is 1133421.
The total value of stock buying since 2005 is $2,364,409.
The total value of stock sales since 2005 is $363,885,755.
The total value of stock option exercises since 2005 is $240,078,369.


 1   2   3 

Table 2. Detailed insider stock purchases, sales, and option exercises of Northrop Grumman Corp /de/ insiders (NOC) , Part 3
  Trade Date   Insider Name Trade Type     Shares       Price ($)   Value ($)
2012-08-10 Perry David T (CVP Chief Global Bus Dev Officer) Option Ex 1,157 41.14 47,598
2012-08-10 Vice Thomas E (Corp VP & Pres Tech Servs) Sale 26,165 68.17 1,783,668
2012-08-10 Vice Thomas E (Corp VP & Pres Tech Servs) Option Ex 26,165 53.87 1,409,508
2012-08-06 Vice Thomas E (Corp VP & Pres Tech Servs) Sale 18,998 66.53 1,263,936
2012-08-06 Vice Thomas E (Corp VP & Pres Tech Servs) Option Ex 6,382 41.14 262,555
2012-07-31 Ervin Gary W. (Corp VP & Pres Aerospace Sys) Sale 47,869 66.25 3,171,321
2012-07-31 Ervin Gary W. (Corp VP & Pres Aerospace Sys) Option Ex 47,869 41.14 1,969,330
2012-07-31 Bush Wesley G (Chairman, CEO and President) Buy 1,000 66.25 66,250
2012-07-30 Fazio Vic (Director) Sale 3,281 66.77 219,072
2012-07-30 Fazio Vic (Director) Option Ex 3,281 45.75 150,105
2012-07-30 Bush Wesley G (Chairman, CEO and President) Option Ex 49,219 47.99 2,362,019
2012-06-07 Palmer James F (Corp. VP & CFO) Option Ex 176,150 41.14 7,246,811
2012-05-24 Flach Gloria A (CORP VP. PRES, ENT,SH SVCS) Option Ex 2,953 52.48 154,973
2012-05-18 Mills Linda A (Corp. VP & Pres Info Sys) Option Ex 46,000 41.14 1,892,440
2012-05-17 Bush Wesley G (Chairman, CEO and President) Option Ex 359,958 41.14 14,808,672
2012-02-22 Ervin Gary W. (Corp VP & Pres Aerospace Sys) Sale 20,435 60.08 1,227,734
2012-02-22 Peters Aulana L (Director) Sale 3,281 60.05 197,024
2012-02-22 Peters Aulana L (Director) Option Ex 3,281 56.25 184,556
2012-02-22 Schoewe Thomas M (Director) Buy 1,660 60.07 99,716
2012-02-21 Vice Thomas E (Corp VP & Pres Tech Servs) Sale 50,978 60.06 3,061,738
2012-02-21 Vice Thomas E (Corp VP & Pres Tech Servs) Option Ex 32,811 47.85 1,570,006
2012-02-21 Pitts James F (Corp VP & Pres Electronic Sys) Sale 56,406 60.09 3,389,436
2012-02-21 Pitts James F (Corp VP & Pres Electronic Sys) Option Ex 16,406 52.48 860,986
2012-02-17 Ervin Gary W. (Corp VP & Pres Aerospace Sys) Sale 58,125 59.70 3,470,353
2012-02-17 Ervin Gary W. (Corp VP & Pres Aerospace Sys) Option Ex 58,125 46.81 2,720,831
2012-02-17 Bush Wesley G (Chmn., CEO and Pres.) Option Ex 43,750 43.08 1,884,750
2011-11-07 Mills Linda A (Corp. VP & Pres Info Sys) Buy 1,374 57.81 79,430
2011-08-19 Bush Wesley G (Chmn., CEO and Pres.) Buy 5,000 49.75 248,750
2011-08-11 Vice Thomas E (Corp VP & Pres Tech Servs) Sale 9,843 50.11 493,232
2011-08-11 Vice Thomas E (Corp VP & Pres Tech Servs) Option Ex 9,843 35.92 353,560
2011-05-19 Heintz Kenneth N (Corporate VP, Controller & CAO) Buy 2,563 64.76 165,979
2011-05-18 Flach Gloria A (CORP VP. PRES, ENT SH SVCS) Option Ex 3,281 35.92 117,853
2011-05-11 Ervin Gary W. (Corp VP & Pres Aerospace Sys) Sale 14,749 64.92 957,505
2011-05-09 Bush Wesley G (Chf. Exec. Officer & President) Option Ex 54,688 43.14 2,359,240
2011-05-06 Rabinowitz Mark (Corp. VP & Treasurer) Sale 15,397 64.83 998,187
2011-05-06 Rabinowitz Mark (Corp. VP & Treasurer) Option Ex 15,397 46.17 710,910
2011-05-04 Mills Linda A (Corp. VP & Pres Info Sys) Sale 8,750 65.07 569,362
2011-05-04 Mills Linda A (Corp. VP & Pres Info Sys) Option Ex 8,750 47.99 419,912
2011-05-04 Coleman Lewis W (Director) Sale 16,579 64.84 1,074,932
2011-05-04 Coleman Lewis W (Director) Option Ex 11,485 46.74 536,762
2011-05-03 Ervin Gary W. (Corp VP & Pres Aerospace Sys) Sale 45,000 64.83 2,917,350
2011-05-03 Ervin Gary W. (Corp VP & Pres Aerospace Sys) Option Ex 45,000 41.14 1,851,300
2011-04-29 Livanos Alexander C (Corp VP & Chf Tech Officer) Sale 59,243 62.61 3,709,204
2011-04-29 Livanos Alexander C (Corp VP & Chf Tech Officer) Option Ex 59,243 45.89 2,718,838
2010-11-15 Peters Aulana L (Director) Sale 9,000 63.32 569,844
2010-11-15 Peters Aulana L (Director) Option Ex 9,000 46.25 416,277
2010-11-10 Fraser Darryl M (Corp VP, Communications) Sale 22,000 65.21 1,434,598
2010-11-10 Fraser Darryl M (Corp VP, Communications) Option Ex 22,000 48.20 1,060,290
2010-11-10 Ervin Gary W. (Corp VP & Pres Aerospace Sys) Sale 2,000 65.07 130,139
2010-11-10 Ervin Gary W. (Corp VP & Pres Aerospace Sys) Option Ex 2,000 49.03 98,060
2010-08-03 Mills Linda A (Corp. VP & Pres Info Sys) Sale 7,000 58.85 411,950
2010-08-03 Mills Linda A (Corp. VP & Pres Info Sys) Option Ex 7,000 47.11 329,770
2010-05-07 Flach Gloria A (CORP VP. PRES, ENT,SH SVCS) Sale 1,426 64.33 91,734
2010-05-07 Flach Gloria A (CORP VP. PRES, ENT,SH SVCS) Option Ex 1,426 38.13 54,373
2010-05-06 Coleman Lewis W (Director) Sale 2,880 66.52 191,574
2010-03-12 Yslas Stephen D (Corp. VP & General Counsel) Sale 632 64.02 40,460
2009-11-13 Sugar Ronald D (Chief Executive Officer) Sale 60,000 55.00 3,300,000
2009-11-13 Sugar Ronald D (Chief Executive Officer) Option Ex 60,000 48.50 2,910,000
2009-11-12 Mills Linda A (Corp. VP & Pres Info Sys) Sale 4,286 54.61 234,058
2009-11-12 Mills Linda A (Corp. VP & Pres Info Sys) Option Ex 4,286 34.54 148,038
2009-10-29 Sugar Ronald D (Chief Executive Officer) Sale 13,334 50.18 669,060
2009-10-29 Sugar Ronald D (Chief Executive Officer) Option Ex 13,334 39.28 523,759
2009-09-17 Sugar Ronald D (Chief Executive Officer) Sale 13,333 50.00 666,650
2009-09-17 Sugar Ronald D (Chief Executive Officer) Option Ex 13,333 39.28 523,720
2009-05-13 Bush Wesley G (Pres. & Chf. Operating Officer) Sale 1 47.98 47
2009-05-05 Sugar Ronald D (Chief Executive Officer) Sale 13,333 50.00 666,650
2009-05-05 Sugar Ronald D (Chief Executive Officer) Option Ex 13,333 39.28 523,720
2009-04-30 Teel Philip A (Corporate Vice President) Sale 20,000 48.23 964,599
2009-04-28 Bush Wesley G (Pres. & Chf. Operating Officer) Sale 41,049 48.27 1,981,435
2009-02-24 Frost Phillip Md Et Al (Director) Option Ex 6,000 37.19 223,140
2009-02-19 Yslas Stephen D (Corp. VP & General Counsel) Sale 425 45.63 19,392
2009-02-12 Fraser Darryl M (Corp. VP, Communications) Sale 1,000 45.23 45,230
2008-08-22 Peters Aulana L (Director) Sale 3,000 69.97 209,910
2008-08-22 Peters Aulana L (Director) Option Ex 3,000 38.88 116,640
2008-08-05 Frost Gamma Investments Trust (Other) Buy 10,000 66.69 666,910
2008-08-01 Bush Wesley G (Pres. & Chf. Operating Officer) Option Ex 33,214 50.39 1,673,653
2008-05-07 Frost Phillip Md Et Al (Director) Option Ex 3,000 51.63 154,890
2008-04-29 Frost Gamma Investment Trust (Other) Buy 10,000 74.37 743,690
2008-04-29 Coleman Lewis W (Director) Sale 4,500 74.30 334,363
2008-04-29 Coleman Lewis W (Director) Option Ex 4,500 50.08 225,373
2008-03-04 Mills Linda A (Corp. VP & Pres. Info. Tech.) Sale 15,000 80.47 1,203,159
2008-03-04 Mills Linda A (Corp. VP & Pres. Info. Tech.) Option Ex 15,000 44.33 664,875
2008-03-04 Ziskin Ian V (Corp VP & Chf HR & Adm Ofcr) Sale 6,313 80.82 510,229
2008-03-04 Pitts James F (Corp VP & Pres, Electron. Sys.) Sale 25,533 80.86 2,065,912
2008-03-04 Pitts James F (Corp VP & Pres, Electron. Sys.) Option Ex 16,000 47.11 753,760
2008-03-04 Teel Philip A (Corp VP & Pres Elec Miss. Sys.) Sale 20,000 80.17 1,603,500
2008-03-04 Teel Philip A (Corp VP & Pres Elec Miss. Sys.) Option Ex 20,000 33.03 660,600
2008-03-04 Livanos Alexander C (Corp. VP & Pres. Space Tech.) Sale 45,370 80.27 3,642,573
2008-03-04 Livanos Alexander C (Corp. VP & Pres. Space Tech.) Option Ex 22,000 49.70 1,093,312
2008-03-04 Terry W Burks (Corp. VP & General Counsel) Option Ex 42,096 49.42 2,080,384
2008-03-04 O Brien Rosanne P (Corp. VP, Communications) Sale 33,903 80.42 2,724,362
2008-03-04 Helm Robert W (Corp.VP, Bus Dev & Gov. Rel.) Sale 75,000 80.21 6,016,050
2008-03-04 Helm Robert W (Corp.VP, Bus Dev & Gov. Rel.) Option Ex 75,000 46.81 3,511,125
2008-03-04 Fazio Vic (Director) Sale 4,500 81.26 365,670
2008-03-04 Fazio Vic (Director) Option Ex 3,000 61.52 184,560
2008-03-04 Peters Aulana L (Director) Option Ex 3,000 51.63 154,890
2008-01-29 Bush Wesley G (Pres. & Chf. Operating Officer) Option Ex 4,286 78.72 337,393
2007-10-29 Agee Jerry B (Corp VP & Pres Mission Systems) Option Ex 2,144 49.85 106,878
2007-10-29 Odeen Philip A (Director) Option Ex 57,140 49.85 2,848,429
2007-02-28 Frost Phillip Md Et Al (Director) Option Ex 3,000 42.56 127,680
2007-02-26 Peters Aulana L (Director) Option Ex 3,000 42.56 127,680
2007-02-26 Larson Charles R (Director) Option Ex 6,000 53.13 318,810
2006-05-23 Agee Jerry B (Corp VP & Pres Mission Systems) Option Ex 2,144 46.79 100,317
2006-05-08 Chain John T Jr (Director) Option Ex 1,000 31.00 31,000
2006-05-01 Fazio Vic (Director) Sale 9,000 67.42 606,780
2006-05-01 Fazio Vic (Director) Option Ex 9,000 42.54 382,824
2006-02-28 Sanford James L (Corp. VP & Treasurer) Sale 29,900 65.13 1,947,386
2006-02-28 Sanford James L (Corp. VP & Treasurer) Option Ex 29,900 45.01 1,345,649
2006-02-27 Agee Jerry B (Corp VP & Pres Mission Systems) Sale 1,600 65.75 105,200
2006-02-24 Sanford James L (Corp. VP & Treasurer) Option Ex 20,100 43.29 870,129
2006-02-22 Helm Robert W (Corp.VP, Government Relations) Sale 68,158 66.20 4,511,855
2006-02-22 Helm Robert W (Corp.VP, Government Relations) Option Ex 46,000 42.16 1,939,130
2006-02-22 Hateley J Michael (Corporate Vice President) Sale 8,138 66.02 537,238
2006-02-22 Frost Phillip Md Et Al (Director) Option Ex 1,000 31.00 31,000
2006-02-21 Livanos Alexander C (Corp. VP & Pres. Space Tech.) Sale 11,820 65.28 771,562
2006-02-21 Terry W Burks (Corp. VP & General Counsel) Option Ex 8,700 54.63 475,281
2006-02-21 O Brien Rosanne P (Corp. VP, Communications) Sale 76,000 65.10 4,947,524
2006-02-21 O Brien Rosanne P (Corp. VP, Communications) Option Ex 76,000 38.16 2,899,780
2006-02-21 Mullan John H (Corp. VP & Secretary) Option Ex 26,993 50.94 1,350,356
2006-02-17 Pitts James F (Corp VP & Pres, Electron. Sys.) Sale 4,600 64.97 298,839
2006-02-17 O Neill James R (Corp. VP & Pres., Info. Tech.) Sale 34,460 65.94 2,272,464
2006-02-17 O Neill James R (Corp. VP & Pres., Info. Tech.) Option Ex 27,000 52.33 1,412,937
2006-02-17 Seymour Scott J (Corp.VP & Pres.Integrated Sys.) Sale 9,765 65.84 642,927
2006-02-16 Pitts James F (Corp VP & Pres, Electron. Sys.) Sale 40,164 65.01 2,610,941
2006-02-16 Pitts James F (Corp VP & Pres, Electron. Sys.) Option Ex 38,000 44.30 1,683,514
2006-02-08 Odeen Philip A (Director) Sale 20,000 63.02 1,260,340
2006-02-08 Odeen Philip A (Director) Option Ex 20,000 49.85 997,000
2006-02-02 Odeen Philip A (Director) Sale 10,000 62.75 627,500
2006-02-02 Odeen Philip A (Director) Option Ex 10,000 49.85 498,500
2006-01-30 Hateley J Michael (Corporate Vice Presi) Sale 22,000 62.00 1,364,000
2006-01-30 Hateley J Michael (Corporate Vice Presi) Option Ex 22,000 46.29 1,018,424
2006-01-30 Odeen Philip A (Director) Sale 20,000 61.49 1,229,860
2006-01-30 Odeen Philip A (Director) Option Ex 20,000 49.85 997,000
2006-01-27 Livanos Alexander C (Corp. VP & Pres. Spa) Sale 13,500 62.57 844,735
2006-01-27 Livanos Alexander C (Corp. VP & Pres. Spa) Option Ex 13,500 48.56 655,587
2006-01-27 Seymour Scott J (Corp.VP & Pres.Integ) Sale 59,000 62.54 3,689,683
2006-01-27 Seymour Scott J (Corp.VP & Pres.Integ) Option Ex 59,000 48.65 2,870,173
2006-01-27 Hateley J Michael (Corporate Vice Presi) Sale 34,831 62.24 2,167,951
2005-12-12 Dur Philip A (Pres. Ship Systems) Sale 2,000 58.46 116,920
2005-11-07 Winter Donald C (Corporate Vice Presi) Sale 14,474 55.20 798,964
2005-10-31 Frank Stephen E (Director) Buy 1,000 54.04 54,040
2005-08-22 O Brien Rosanne P (Corp. VP, Communicat) Sale 2,500 56.28 140,700
2005-08-03 Dur Philip A (Pres. Ship Systems) Sale 5,500 55.53 305,415
2005-05-31 Iorizzo Robert P (Pres. Electric Sys.) Sale 24,000 55.81 1,339,560
2005-05-26 Dur Philip A (Pres. Ship Systems) Sale 1,842 55.41 102,074
2005-05-19 Myers Albert F (Tech.) Sale 15,000 54.26 813,900
2005-05-05 Larson Charles R (Director) Buy 500 55.44 27,720
 1   2   3 

Insider trading activities including stock purchases, stock sales, and option exercises of NOC listed in the above tables cannot be completely guaranteed as to their accuracy. For more insider trading information of Northrop Grumman Corp /de/ (symbol NOC, CIK number 1133421) see the Securities and Exchange Commission (SEC) website.